Time;durP1;ratioP1;P1;durP2;ratioP2;P2;SDS_P1;SDS_P2;PMS_P1;PMS_P2;Temp;Humidity;BMP_temperature;BMP_pressure;BME280_temperature;BME280_humidity;BME280_pressure;Samples;Min_cycle;Max_cycle;Signal;HPM_P1;HPM_P2
2023/11/19 00:01:05;;;;;;;75.45;9.98;;;13.30;99.90;;;;;;10445989;28;23067;-30
2023/11/19 00:06:11;;;;;;;76.50;9.30;;;13.30;99.90;;;;;;10455429;28;20048;-31
2023/11/19 00:11:15;;;;;;;50.53;6.75;;;13.30;99.90;;;;;;10456031;28;20884;-30
2023/11/19 00:16:17;;;;;;;72.15;7.80;;;13.40;99.90;;;;;;10453439;28;20166;-31
2023/11/19 00:21:22;;;;;;;42.73;5.77;;;13.30;99.90;;;;;;10456237;28;20107;-30
2023/11/19 00:26:23;;;;;;;77.45;8.40;;;13.30;99.90;;;;;;10456047;28;20059;-31
2023/11/19 00:31:27;;;;;;;58.33;8.52;;;13.30;99.90;;;;;;10453286;28;20861;-29
2023/11/19 00:36:30;;;;;;;34.78;5.63;;;13.40;99.90;;;;;;10456995;28;20044;-29
2023/11/19 00:41:32;;;;;;;80.45;10.00;;;13.30;99.90;;;;;;10453523;28;20052;-29
2023/11/19 00:46:34;;;;;;;74.10;9.07;;;13.20;99.90;;;;;;10456020;28;20048;-30
2023/11/19 00:51:37;;;;;;;91.43;11.98;;;13.20;99.90;;;;;;10456998;28;20993;-30
2023/11/19 00:56:39;;;;;;;70.15;9.38;;;13.20;99.90;;;;;;10456325;28;20048;-33
2023/11/19 01:01:41;;;;;;;66.77;8.33;;;13.20;99.90;;;;;;10457949;28;20052;-29
2023/11/19 01:06:45;;;;;;;59.15;9.40;;;13.20;99.90;;;;;;10454582;28;20525;-30
2023/11/19 01:11:46;;;;;;;56.40;7.47;;;13.20;99.90;;;;;;10456229;28;20044;-31
2023/11/19 01:16:48;;;;;;;75.80;9.93;;;13.30;99.90;;;;;;10453934;28;20730;-29
2023/11/19 01:21:52;;;;;;;58.53;7.80;;;13.10;99.90;;;;;;10455925;28;20173;-30
2023/11/19 01:26:54;;;;;;;73.90;11.20;;;13.10;99.90;;;;;;10455684;28;20338;-30
2023/11/19 01:31:55;;;;;;;61.47;6.78;;;12.90;99.90;;;;;;10454536;28;20052;-31
2023/11/19 01:36:59;;;;;;;58.63;8.10;;;13.00;99.90;;;;;;10456137;28;20097;-31
2023/11/19 01:42:00;;;;;;;76.22;10.00;;;13.00;99.90;;;;;;10458146;28;20094;-30
2023/11/19 01:47:03;;;;;;;58.25;9.10;;;12.80;99.90;;;;;;10453627;28;20049;-29
2023/11/19 01:52:08;;;;;;;48.38;6.97;;;12.90;99.90;;;;;;10453228;28;20083;-29
2023/11/19 01:57:10;;;;;;;64.25;9.68;;;12.90;99.90;;;;;;10454917;28;20052;-28
2023/11/19 02:02:13;;;;;;;71.90;12.37;;;13.00;99.90;;;;;;10457291;28;20411;-29
2023/11/19 02:07:17;;;;;;;59.03;7.68;;;12.70;99.90;;;;;;10456492;28;20072;-30
2023/11/19 02:12:20;;;;;;;54.92;7.72;;;12.90;99.90;;;;;;10450004;28;20052;-30
2023/11/19 02:17:28;;;;;;;;;;;13.00;99.90;;;;;;10451390;28;20110;-31
2023/11/19 02:22:32;;;;;;;50.67;7.20;;;12.70;99.90;;;;;;10454591;28;19921;-30
2023/11/19 02:27:49;;;;;;;66.35;8.43;;;12.80;99.90;;;;;;10454366;28;20053;-30
2023/11/19 02:32:51;;;;;;;63.05;7.53;;;12.70;99.90;;;;;;10453348;28;20193;-30
2023/11/19 02:37:53;;;;;;;77.88;9.05;;;12.80;99.90;;;;;;10456272;28;20820;-29
2023/11/19 02:42:57;;;;;;;50.83;7.05;;;12.70;99.90;;;;;;10456385;28;20928;-29
2023/11/19 02:48:01;;;;;;;85.15;10.32;;;12.70;99.90;;;;;;10452314;28;20056;-30
2023/11/19 02:53:04;;;;;;;76.70;10.00;;;12.60;99.90;;;;;;10455883;28;20450;-29
2023/11/19 02:58:19;;;;;;;67.90;9.48;;;12.60;99.90;;;;;;10451025;28;20052;-31
2023/11/19 03:03:22;;;;;;;73.60;8.50;;;12.80;99.90;;;;;;10454787;28;20173;-29
2023/11/19 03:08:24;;;;;;;70.18;8.18;;;12.70;99.90;;;;;;10454523;28;20053;-28
2023/11/19 03:13:27;;;;;;;70.17;9.03;;;12.60;99.90;;;;;;10449833;28;20123;-29
2023/11/19 03:18:29;;;;;;;67.82;8.43;;;12.60;99.90;;;;;;10454172;28;20101;-31
2023/11/19 03:23:31;;;;;;;64.25;9.95;;;12.60;99.90;;;;;;10453352;28;20049;-30
2023/11/19 03:28:34;;;;;;;67.47;8.80;;;12.50;99.90;;;;;;10454818;28;20040;-29
2023/11/19 03:33:37;;;;;;;68.13;7.78;;;12.50;99.90;;;;;;10452170;28;20052;-30
2023/11/19 03:38:42;;;;;;;83.85;11.02;;;12.50;99.90;;;;;;10458729;28;20106;-31
2023/11/19 03:43:45;;;;;;;81.05;10.88;;;12.50;99.90;;;;;;10458457;28;20059;-30
2023/11/19 03:48:47;;;;;;;;;;;12.40;99.90;;;;;;10461461;28;20597;-29
2023/11/19 03:53:49;;;;;;;68.95;11.10;;;12.50;99.90;;;;;;10465399;28;19921;-30
2023/11/19 04:15:32;;;;;;;63.30;8.40;;;12.70;99.90;;;;;;10512714;27;20186;-31
2023/11/19 04:20:34;;;;;;;52.95;6.18;;;12.70;99.90;;;;;;10528305;28;20052;-28
2023/11/19 04:25:36;;;;;;;49.93;6.23;;;12.60;99.90;;;;;;10523210;28;20052;-30
2023/11/19 04:30:40;;;;;;;40.10;5.72;;;12.60;99.90;;;;;;10523245;28;20056;-29
2023/11/19 04:35:41;;;;;;;53.63;6.55;;;12.70;99.90;;;;;;10524433;28;20097;-29
2023/11/19 04:40:43;;;;;;;52.33;7.40;;;12.60;99.90;;;;;;10525698;28;20232;-29
2023/11/19 04:45:47;;;;;;;58.72;8.75;;;12.40;99.90;;;;;;10519688;28;20057;-30
2023/11/19 04:50:51;;;;;;;45.35;6.47;;;12.60;99.90;;;;;;10520388;28;20043;-30
2023/11/19 04:55:52;;;;;;;39.33;6.30;;;12.80;99.90;;;;;;10528025;28;20048;-30
2023/11/19 05:00:56;;;;;;;55.10;7.55;;;12.90;99.90;;;;;;10518824;28;20050;-29
2023/11/19 05:05:58;;;;;;;62.97;8.18;;;12.70;99.90;;;;;;10515345;28;20061;-29
2023/11/19 05:11:00;;;;;;;59.72;9.05;;;12.60;99.90;;;;;;10524845;28;20048;-29
2023/11/19 05:16:03;;;;;;;52.63;8.20;;;12.80;99.90;;;;;;10524976;28;20051;-29
2023/11/19 05:21:05;;;;;;;41.35;5.78;;;12.80;99.90;;;;;;10521251;28;20055;-29
2023/11/19 05:26:07;;;;;;;55.40;7.23;;;13.00;99.90;;;;;;10500073;28;20156;-28
2023/11/19 05:31:10;;;;;;;55.50;7.07;;;12.70;99.90;;;;;;10490539;28;20519;-30
2023/11/19 05:36:13;;;;;;;45.55;6.60;;;12.60;99.90;;;;;;10484891;28;20551;-30
2023/11/19 05:41:15;;;;;;;44.40;7.65;;;12.60;99.90;;;;;;10487343;28;20048;-30
2023/11/19 05:46:18;;;;;;;41.72;6.00;;;12.60;99.90;;;;;;10489365;28;20166;-30
2023/11/19 05:51:20;;;;;;;48.75;8.25;;;12.80;99.90;;;;;;10490548;28;20083;-29
2023/11/19 05:56:22;;;;;;;57.00;7.72;;;12.70;99.90;;;;;;10490582;28;20233;-30
2023/11/19 06:01:26;;;;;;;40.17;6.60;;;12.60;99.90;;;;;;10487277;28;20048;-31
2023/11/19 06:06:28;;;;;;;57.40;7.82;;;12.60;99.90;;;;;;10491872;28;20140;-31
2023/11/19 06:11:30;;;;;;;60.58;8.52;;;12.70;99.90;;;;;;10495865;28;20345;-32
2023/11/19 06:16:33;;;;;;;62.55;7.45;;;12.60;99.90;;;;;;10499145;28;20631;-31
2023/11/19 06:21:36;;;;;;;58.50;10.07;;;12.40;99.90;;;;;;10488464;28;20087;-30
2023/11/19 06:26:39;;;;;;;46.40;8.02;;;12.40;99.90;;;;;;10489310;28;20139;-28
2023/11/19 06:31:43;;;;;;;70.67;9.97;;;12.50;99.90;;;;;;10484997;28;20044;-29
2023/11/19 06:36:45;;;;;;;66.28;8.80;;;12.60;99.90;;;;;;10486164;28;20077;-28
2023/11/19 06:41:47;;;;;;;45.20;9.35;;;12.40;99.90;;;;;;10492744;28;20048;-29
2023/11/19 06:46:51;;;;;;;64.90;9.43;;;12.80;99.90;;;;;;10487580;28;20063;-29
2023/11/19 06:51:52;;;;;;;49.75;7.75;;;12.80;99.90;;;;;;10487083;28;20179;-31
2023/11/19 06:56:54;;;;;;;55.00;8.10;;;12.70;99.90;;;;;;10488031;28;20044;-31
2023/11/19 07:01:57;;;;;;;46.83;7.20;;;12.60;99.90;;;;;;10487803;28;20063;-27
2023/11/19 07:06:59;;;;;;;57.40;8.23;;;12.80;99.90;;;;;;10484582;28;20581;-29
2023/11/19 07:12:04;;;;;;;55.40;7.90;;;12.90;99.90;;;;;;10486811;28;20063;-29
2023/11/19 07:17:08;;;;;;;49.47;6.82;;;12.80;99.90;;;;;;10485172;28;20102;-30
2023/11/19 07:22:11;;;;;;;52.42;8.23;;;12.90;99.90;;;;;;10483735;28;20122;-29
2023/11/19 07:27:13;;;;;;;48.15;6.93;;;12.80;99.90;;;;;;10486021;28;20060;-30
2023/11/19 07:32:16;;;;;;;55.40;6.32;;;13.00;99.90;;;;;;10483084;28;20052;-29
2023/11/19 07:37:18;;;;;;;66.25;7.85;;;13.00;99.90;;;;;;10476745;28;20839;-30
2023/11/19 07:42:20;;;;;;;55.50;8.95;;;12.90;99.90;;;;;;10483400;28;20053;-29
2023/11/19 07:47:23;;;;;;;58.42;6.80;;;13.00;99.90;;;;;;10482076;28;20109;-30
2023/11/19 07:52:25;;;;;;;44.03;6.10;;;12.80;99.90;;;;;;10478507;28;20037;-29
2023/11/19 07:57:30;;;;;;;51.70;7.80;;;12.90;99.90;;;;;;10476893;28;20170;-30
2023/11/19 08:02:33;;;;;;;67.93;8.63;;;13.10;99.90;;;;;;10487660;28;20039;-31
2023/11/19 08:07:35;;;;;;;54.72;8.55;;;13.00;99.90;;;;;;10485430;28;20055;-29
2023/11/19 08:12:37;;;;;;;48.20;6.07;;;12.90;99.90;;;;;;10484129;28;20590;-29
2023/11/19 08:17:40;;;;;;;57.30;7.85;;;13.00;99.90;;;;;;10474729;28;20052;-30
2023/11/19 08:22:41;;;;;;;46.47;6.82;;;13.10;99.90;;;;;;10486169;28;20044;-29
2023/11/19 08:27:43;;;;;;;50.55;6.93;;;13.20;99.90;;;;;;10483436;28;20167;-31
2023/11/19 08:32:47;;;;;;;35.60;5.75;;;13.40;99.90;;;;;;10478497;28;20349;-29
2023/11/19 08:37:48;;;;;;;65.50;9.10;;;13.40;99.90;;;;;;10484864;28;20305;-30
2023/11/19 08:42:50;;;;;;;57.97;6.78;;;13.20;99.90;;;;;;10487582;28;20719;-34
2023/11/19 08:47:53;;;;;;;55.58;9.32;;;13.30;99.90;;;;;;10481397;28;20060;-30
2023/11/19 08:52:56;;;;;;;53.38;7.60;;;13.40;99.90;;;;;;10483577;28;20148;-29
2023/11/19 08:57:58;;;;;;;48.25;6.18;;;13.30;99.90;;;;;;10477250;28;20052;-31
2023/11/19 09:03:01;;;;;;;47.40;5.55;;;13.30;99.90;;;;;;10493850;28;20141;-31
2023/11/19 09:08:04;;;;;;;62.13;8.65;;;13.30;99.90;;;;;;10486405;28;20109;-29
2023/11/19 09:13:05;;;;;;;49.42;9.48;;;13.50;99.90;;;;;;10492595;28;20055;-28
2023/11/19 09:18:09;;;;;;;40.83;6.85;;;13.60;99.90;;;;;;10492535;28;22506;-29
2023/11/19 09:23:12;;;;;;;34.08;5.38;;;13.60;99.90;;;;;;10496703;28;20047;-30
2023/11/19 09:28:14;;;;;;;47.45;7.20;;;13.70;99.90;;;;;;10489245;28;20160;-38
2023/11/19 09:33:17;;;;;;;52.43;7.07;;;13.80;99.90;;;;;;10498369;28;20112;-33
2023/11/19 09:38:19;;;;;;;49.78;7.57;;;13.80;99.90;;;;;;10495338;28;20048;-31
2023/11/19 09:43:20;;;;;;;50.13;7.38;;;13.80;99.90;;;;;;10490635;28;22272;-29
2023/11/19 09:48:26;;;;;;;38.05;4.78;;;13.80;99.90;;;;;;10482442;28;21065;-32
2023/11/19 09:53:28;;;;;;;32.72;5.95;;;13.90;99.90;;;;;;10485074;28;20782;-30
2023/11/19 09:58:31;;;;;;;37.50;5.43;;;13.90;99.90;;;;;;10489343;28;20121;-30
2023/11/19 10:03:37;;;;;;;57.30;7.18;;;13.80;99.90;;;;;;10493225;28;20094;-29
2023/11/19 10:08:40;;;;;;;47.70;6.93;;;13.80;99.90;;;;;;10491284;28;20053;-30
2023/11/19 10:13:42;;;;;;;36.75;5.13;;;13.60;99.90;;;;;;10494865;28;20036;-30
2023/11/19 10:18:46;;;;;;;47.77;6.77;;;13.80;99.90;;;;;;10483823;28;20052;-29
2023/11/19 10:23:52;;;;;;;46.58;6.20;;;13.80;99.90;;;;;;10483778;28;20495;-30
2023/11/19 10:28:54;;;;;;;54.10;7.93;;;13.80;99.90;;;;;;10487383;28;20055;-30
2023/11/19 10:33:57;;;;;;;40.85;5.80;;;13.70;99.90;;;;;;10487623;28;20487;-31
2023/11/19 10:38:59;;;;;;;32.22;6.13;;;13.90;99.90;;;;;;10484695;28;20863;-30
2023/11/19 10:44:01;;;;;;;21.52;4.80;;;14.10;99.90;;;;;;10492031;28;20052;-30
2023/11/19 10:49:04;;;;;;;43.30;6.30;;;14.40;99.90;;;;;;10485380;28;20109;-29
2023/11/19 10:54:07;;;;;;;48.20;6.68;;;14.30;99.90;;;;;;10483133;28;20138;-29
2023/11/19 10:59:11;;;;;;;52.28;8.48;;;14.30;99.90;;;;;;10483128;28;20059;-30
2023/11/19 11:04:16;;;;;;;62.92;9.25;;;14.60;99.90;;;;;;10477227;28;20071;-30
2023/11/19 11:09:18;;;;;;;66.20;8.60;;;14.40;99.90;;;;;;10475824;28;20056;-29
2023/11/19 11:14:24;;;;;;;49.83;7.22;;;14.10;99.90;;;;;;10484997;28;20052;-31
2023/11/19 11:19:27;;;;;;;70.75;8.93;;;14.10;99.90;;;;;;10480224;28;20056;-32
2023/11/19 11:25:06;;;;;;;52.88;7.80;;;14.30;99.90;;;;;;10486759;28;20052;-29
2023/11/19 11:30:20;;;;;;;51.75;8.55;;;14.20;99.90;;;;;;10484164;28;20193;-29
2023/11/19 11:35:38;;;;;;;49.70;7.20;;;14.20;99.90;;;;;;10475035;28;20067;-29
2023/11/19 11:40:40;;;;;;;42.80;6.75;;;14.40;99.90;;;;;;10480063;28;20187;-30
2023/11/19 11:45:43;;;;;;;37.63;5.63;;;14.30;99.90;;;;;;10476217;28;20080;-31
2023/11/19 11:50:51;;;;;;;39.22;5.38;;;14.30;99.90;;;;;;10485545;28;20053;-31
2023/11/19 11:55:58;;;;;;;29.42;5.13;;;14.20;99.90;;;;;;10481283;28;20045;-29
2023/11/19 12:01:03;;;;;;;37.60;6.68;;;14.40;99.90;;;;;;10481461;28;20124;-29
2023/11/19 12:06:08;;;;;;;40.35;5.28;;;14.50;99.90;;;;;;10479781;28;20105;-28
2023/11/19 12:11:10;;;;;;;55.45;7.03;;;14.30;99.90;;;;;;10472315;28;20064;-30
2023/11/19 12:16:12;;;;;;;49.85;6.80;;;14.20;99.90;;;;;;10478964;28;20040;-30
2023/11/19 12:21:29;;;;;;;35.63;5.22;;;14.20;99.90;;;;;;10484037;28;20064;-31
2023/11/19 12:26:41;;;;;;;52.35;7.72;;;14.50;99.90;;;;;;10487810;28;20044;-32
2023/11/19 12:31:45;;;;;;;58.03;8.77;;;14.20;99.90;;;;;;10483693;28;20060;-29
2023/11/19 12:36:49;;;;;;;59.97;8.02;;;14.10;99.90;;;;;;10494760;28;20123;-30
2023/11/19 12:41:54;;;;;;;42.50;7.90;;;14.30;99.90;;;;;;10490970;28;20052;-29
2023/11/19 12:47:03;;;;;;;56.95;10.40;;;14.00;99.90;;;;;;10494066;28;20047;-33
2023/11/19 12:52:14;;;;;;;65.68;8.80;;;14.00;99.90;;;;;;10487326;28;20154;-30
2023/11/19 12:57:16;;;;;;;50.97;6.82;;;13.90;99.90;;;;;;10482245;28;20052;-30
2023/11/19 13:02:17;;;;;;;57.67;7.23;;;14.30;99.90;;;;;;10496191;28;20074;-29
2023/11/19 13:07:23;;;;;;;55.60;7.43;;;14.00;99.90;;;;;;10484830;28;20052;-30
2023/11/19 13:12:25;;;;;;;72.82;10.13;;;14.00;99.90;;;;;;10493460;28;20200;-29
2023/11/19 13:17:27;;;;;;;78.80;10.45;;;13.70;99.90;;;;;;10490123;28;20153;-31
2023/11/19 13:22:30;;;;;;;58.10;8.43;;;13.80;99.90;;;;;;10492043;28;20044;-27
2023/11/19 13:27:33;;;;;;;71.18;10.75;;;14.00;99.90;;;;;;10482936;28;20052;-29
2023/11/19 13:32:34;;;;;;;50.17;8.02;;;13.60;99.90;;;;;;10487534;28;20059;-29
2023/11/19 13:37:38;;;;;;;61.28;8.43;;;13.90;99.90;;;;;;10480802;28;20044;-29
2023/11/19 13:42:40;;;;;;;46.15;6.93;;;13.70;99.90;;;;;;10487052;28;20087;-29
2023/11/19 13:47:43;;;;;;;37.65;5.93;;;14.00;99.90;;;;;;10487602;28;20485;-30
2023/11/19 13:52:47;;;;;;;58.53;7.15;;;13.90;99.90;;;;;;10488765;28;20048;-29
2023/11/19 13:57:49;;;;;;;49.95;8.07;;;13.80;99.90;;;;;;10477436;28;20053;-32
2023/11/19 14:02:51;;;;;;;52.40;8.55;;;14.10;99.90;;;;;;10479351;28;20158;-30
2023/11/19 14:07:56;;;;;;;55.33;8.82;;;14.10;99.90;;;;;;10478785;28;20044;-30
2023/11/19 14:12:58;;;;;;;46.65;6.90;;;13.70;99.90;;;;;;10480889;28;20411;-31
2023/11/19 14:18:00;;;;;;;47.83;6.38;;;14.20;99.90;;;;;;10479719;28;20486;-30
2023/11/19 14:23:03;;;;;;;48.70;6.80;;;14.50;99.90;;;;;;10472918;28;20052;-30
2023/11/19 14:28:05;;;;;;;44.85;5.82;;;14.40;99.90;;;;;;10475348;28;20117;-31
2023/11/19 14:33:07;;;;;;;52.95;8.20;;;14.60;99.90;;;;;;10474320;28;20751;-29
2023/11/19 14:38:10;;;;;;;45.13;7.40;;;14.40;99.90;;;;;;10483764;28;20059;-30
2023/11/19 14:43:12;;;;;;;53.35;8.23;;;14.60;99.90;;;;;;10485684;28;20410;-30
2023/11/19 14:48:14;;;;;;;41.17;7.75;;;13.90;99.90;;;;;;10484971;28;20056;-29
2023/11/19 14:53:18;;;;;;;76.00;9.63;;;13.90;99.90;;;;;;10477859;28;20118;-29
2023/11/19 14:58:20;;;;;;;46.88;6.15;;;13.60;99.90;;;;;;10482794;28;20493;-30
2023/11/19 15:03:22;;;;;;;43.33;7.28;;;13.90;99.90;;;;;;10487315;28;20048;-31
2023/11/19 15:08:25;;;;;;;55.07;6.43;;;13.80;99.90;;;;;;10482373;28;20045;-29
2023/11/19 15:13:27;;;;;;;43.78;6.10;;;13.70;99.90;;;;;;10484274;28;20056;-31
2023/11/19 15:18:28;;;;;;;60.53;9.95;;;13.80;99.90;;;;;;10488273;28;20147;-29
2023/11/19 15:23:32;;;;;;;57.65;8.25;;;13.40;99.90;;;;;;10481553;28;20052;-33
2023/11/19 15:28:33;;;;;;;56.20;8.75;;;13.70;99.90;;;;;;10482191;28;20083;-29
2023/11/19 15:33:35;;;;;;;50.65;7.45;;;13.50;99.90;;;;;;10486145;28;20091;-29
2023/11/19 15:38:38;;;;;;;59.10;7.40;;;13.40;99.90;;;;;;10481628;28;20531;-29
2023/11/19 15:43:40;;;;;;;44.92;5.90;;;13.40;99.90;;;;;;10479171;28;20108;-27
2023/11/19 15:48:42;;;;;;;60.40;8.15;;;13.20;99.90;;;;;;10479198;28;20187;-29
2023/11/19 15:53:46;;;;;;;62.63;7.90;;;13.30;99.90;;;;;;10484858;28;20053;-31
2023/11/19 15:58:48;;;;;;;67.28;8.52;;;13.30;99.90;;;;;;10486009;28;20282;-29
2023/11/19 16:03:51;;;;;;;28.83;4.32;;;13.00;99.90;;;;;;10482032;28;20052;-30
2023/11/19 16:08:56;;;;;;;64.60;9.20;;;13.40;99.90;;;;;;10479140;28;20208;-30
2023/11/19 16:13:57;;;;;;;47.00;7.85;;;12.80;99.90;;;;;;10486116;28;20044;-28
2023/11/19 16:19:00;;;;;;;62.72;8.45;;;13.10;99.90;;;;;;10483047;28;20051;-28
2023/11/19 16:24:04;;;;;;;69.17;9.87;;;12.80;99.90;;;;;;10483089;28;20072;-29
2023/11/19 16:29:05;;;;;;;50.33;9.50;;;13.00;99.90;;;;;;10481240;28;20478;-29
2023/11/19 16:34:07;;;;;;;47.15;7.80;;;12.70;99.90;;;;;;10480281;28;20493;-29
2023/11/19 16:39:13;;;;;;;52.97;7.07;;;12.90;99.90;;;;;;10484724;28;20049;-30
2023/11/19 16:44:15;;;;;;;74.50;9.50;;;13.00;99.90;;;;;;10484696;28;20036;-29
2023/11/19 16:49:16;;;;;;;95.85;12.27;;;12.60;99.90;;;;;;10482946;28;20384;-31
2023/11/19 16:54:20;;;;;;;81.03;11.57;;;12.50;99.90;;;;;;10488145;28;20052;-30
2023/11/19 16:59:22;;;;;;;80.30;12.77;;;12.70;99.90;;;;;;10485537;28;20260;-29
2023/11/19 17:04:25;;;;;;;81.53;11.30;;;12.70;99.90;;;;;;10485269;28;20511;-31
2023/11/19 17:09:28;;;;;;;75.38;10.32;;;12.60;99.90;;;;;;10478183;28;20051;-31
2023/11/19 17:14:30;;;;;;;73.22;9.45;;;12.70;99.90;;;;;;10483266;28;20044;-30
2023/11/19 17:19:31;;;;;;;54.05;6.85;;;12.90;99.90;;;;;;10484937;28;20494;-30
2023/11/19 17:24:35;;;;;;;71.60;9.80;;;12.70;99.90;;;;;;10489311;28;20135;-29
2023/11/19 17:29:37;;;;;;;84.40;11.45;;;12.80;99.90;;;;;;10485897;28;20784;-30
2023/11/19 17:34:39;;;;;;;58.22;7.10;;;12.60;99.90;;;;;;10490193;28;21412;-33
2023/11/19 17:39:42;;;;;;;63.85;9.13;;;12.90;99.90;;;;;;10487060;28;20075;-31
2023/11/19 17:44:44;;;;;;;47.17;7.70;;;12.70;99.90;;;;;;10489094;28;20055;-29
2023/11/19 17:49:47;;;;;;;58.67;9.43;;;12.70;99.90;;;;;;10485750;28;20550;-28
2023/11/19 17:54:50;;;;;;;59.55;7.40;;;12.90;99.90;;;;;;10493009;28;20059;-30
2023/11/19 17:59:52;;;;;;;75.25;9.60;;;12.80;99.90;;;;;;10488302;28;20125;-29
2023/11/19 18:04:54;;;;;;;60.08;7.78;;;12.80;99.90;;;;;;10490159;28;20112;-30
2023/11/19 18:09:58;;;;;;;42.88;6.93;;;12.80;99.90;;;;;;10483700;28;20055;-28
2023/11/19 18:14:59;;;;;;;60.15;8.63;;;12.80;99.90;;;;;;10488194;28;20045;-32
2023/11/19 18:20:01;;;;;;;57.33;9.27;;;12.60;99.90;;;;;;10477799;28;20901;-29
2023/11/19 18:25:05;;;;;;;56.75;8.55;;;12.60;99.90;;;;;;10484433;28;20722;-29
2023/11/19 18:30:09;;;;;;;62.00;7.40;;;12.60;99.90;;;;;;10485615;28;20056;-29
2023/11/19 18:35:12;;;;;;;60.03;7.53;;;12.70;99.90;;;;;;10477583;28;20499;-29
2023/11/19 18:40:18;;;;;;;45.67;6.68;;;12.70;99.90;;;;;;10477341;28;20056;-28
2023/11/19 18:45:21;;;;;;;46.25;6.72;;;12.80;99.90;;;;;;10485153;28;20158;-29
2023/11/19 18:50:23;;;;;;;47.13;6.22;;;12.80;99.90;;;;;;10482025;28;20049;-31
2023/11/19 18:55:27;;;;;;;53.13;6.35;;;12.80;99.90;;;;;;10477042;28;20055;-31
2023/11/19 19:00:29;;;;;;;48.53;7.68;;;13.00;99.90;;;;;;10480576;28;20052;-30
2023/11/19 19:05:31;;;;;;;52.95;8.25;;;13.00;99.90;;;;;;10478536;28;20099;-28
2023/11/19 19:10:37;;;;;;;50.42;6.57;;;13.00;99.90;;;;;;10477445;28;20052;-29
2023/11/19 19:15:39;;;;;;;38.47;6.40;;;13.10;99.90;;;;;;10478944;28;20590;-30
2023/11/19 19:20:41;;;;;;;50.97;5.77;;;13.00;99.90;;;;;;10481035;28;20193;-29
2023/11/19 19:25:44;;;;;;;42.33;6.57;;;13.10;99.90;;;;;;10481635;28;20060;-29
2023/11/19 19:30:46;;;;;;;57.47;7.72;;;13.10;99.90;;;;;;10482116;28;20056;-29
2023/11/19 19:35:47;;;;;;;42.65;5.72;;;13.10;99.90;;;;;;10478794;28;20114;-29
2023/11/19 19:40:50;;;;;;;47.28;5.90;;;13.20;99.90;;;;;;10479680;28;20048;-30
2023/11/19 19:45:54;;;;;;;46.47;7.53;;;13.10;99.90;;;;;;10478043;28;20099;-30
2023/11/19 19:50:56;;;;;;;38.78;4.60;;;13.20;99.90;;;;;;10480100;28;20159;-29
2023/11/19 19:55:59;;;;;;;47.70;6.57;;;13.20;99.90;;;;;;10486073;28;20110;-28
2023/11/19 20:01:02;;;;;;;29.92;4.90;;;13.20;99.90;;;;;;10488815;28;20961;-32
2023/11/19 20:06:05;;;;;;;53.05;6.40;;;13.40;99.90;;;;;;10492343;28;20835;-29
2023/11/19 20:11:08;;;;;;;36.22;4.95;;;13.30;99.90;;;;;;10501457;28;20097;-28
2023/11/19 20:16:10;;;;;;;33.22;4.65;;;13.20;99.90;;;;;;10507160;28;20048;-27
2023/11/19 20:21:12;;;;;;;44.30;5.63;;;13.20;99.90;;;;;;10520763;28;20554;-29
2023/11/19 20:26:18;;;;;;;36.40;4.05;;;13.40;99.90;;;;;;10512850;28;20552;-31
2023/11/19 20:31:20;;;;;;;40.10;4.43;;;13.10;99.90;;;;;;10520273;28;20097;-29
2023/11/19 20:36:22;;;;;;;32.22;3.65;;;13.30;99.90;;;;;;10508428;28;20044;-28
2023/11/19 20:41:27;;;;;;;28.23;5.25;;;13.30;99.90;;;;;;10507299;28;20052;-30
2023/11/19 20:46:29;;;;;;;35.60;5.25;;;13.30;99.90;;;;;;10517226;28;20048;-29
2023/11/19 20:51:32;;;;;;;41.38;6.07;;;13.10;99.90;;;;;;10506354;28;20114;-28
2023/11/19 20:56:35;;;;;;;;;;;13.10;99.90;;;;;;10510398;28;20050;-26
2023/11/19 21:01:37;;;;;;;20.67;3.85;;;13.20;99.90;;;;;;10521567;28;19988;-28
2023/11/19 21:06:40;;;;;;;18.70;4.20;;;13.20;99.90;;;;;;10526670;28;20529;-31
2023/11/19 21:11:43;;;;;;;27.77;3.88;;;13.30;99.90;;;;;;10520665;28;20498;-28
2023/11/19 21:16:45;;;;;;;18.25;3.28;;;13.20;99.90;;;;;;10518899;28;20134;-29
2023/11/19 21:21:46;;;;;;;20.63;3.17;;;13.20;99.90;;;;;;10519027;28;20479;-28
2023/11/19 21:26:50;;;;;;;22.38;3.00;;;13.20;99.90;;;;;;10517132;28;20052;-28
2023/11/19 21:31:51;;;;;;;30.63;3.67;;;13.40;99.90;;;;;;10518628;28;20102;-29
2023/11/19 21:36:54;;;;;;;22.90;3.95;;;13.30;99.90;;;;;;10526702;28;20098;-26
2023/11/19 21:41:57;;;;;;;20.38;3.83;;;13.20;99.90;;;;;;10537019;28;20079;-30
2023/11/19 21:46:59;;;;;;;16.90;3.75;;;13.20;99.90;;;;;;10527269;28;20607;-30
2023/11/19 21:52:01;;;;;;;33.47;4.25;;;13.30;99.90;;;;;;10517367;28;20048;-29
2023/11/19 21:57:04;;;;;;;23.83;4.10;;;13.20;99.90;;;;;;10520908;28;20200;-28
2023/11/19 22:02:07;;;;;;;21.05;2.92;;;13.30;99.90;;;;;;10516124;28;20052;-30
2023/11/19 22:07:09;;;;;;;20.13;3.03;;;13.20;99.90;;;;;;10511728;28;20147;-29
2023/11/19 22:12:12;;;;;;;19.08;3.30;;;13.20;99.90;;;;;;10520422;28;20056;-31
2023/11/19 22:17:15;;;;;;;21.90;4.93;;;13.10;99.90;;;;;;10512070;28;20071;-30
2023/11/19 22:22:16;;;;;;;18.40;3.13;;;13.20;99.90;;;;;;10507009;28;20049;-29
2023/11/19 22:27:20;;;;;;;27.15;3.83;;;13.10;99.90;;;;;;10520004;28;20083;-28
2023/11/19 22:32:21;;;;;;;27.70;3.50;;;13.20;99.90;;;;;;10509842;28;20121;-29
2023/11/19 22:37:23;;;;;;;30.98;4.43;;;13.00;99.90;;;;;;10512836;28;20079;-29
2023/11/19 22:42:26;;;;;;;22.27;3.63;;;13.10;99.90;;;;;;10526620;28;20087;-29
2023/11/19 22:47:29;;;;;;;23.13;4.63;;;13.00;99.90;;;;;;10512136;28;20040;-29
2023/11/19 22:52:31;;;;;;;31.02;3.53;;;13.10;99.90;;;;;;10522370;28;20561;-30
2023/11/19 22:57:34;;;;;;;22.73;3.20;;;13.00;99.90;;;;;;10511633;28;20047;-29
2023/11/19 23:02:35;;;;;;;28.92;3.30;;;13.20;99.90;;;;;;10507158;28;20071;-30
2023/11/19 23:07:37;;;;;;;23.95;4.13;;;13.10;99.90;;;;;;10505925;28;20082;-27
2023/11/19 23:12:41;;;;;;;29.00;4.78;;;13.10;99.90;;;;;;10518280;28;20044;-30
2023/11/19 23:17:44;;;;;;;32.72;4.10;;;13.10;99.90;;;;;;10517699;28;20465;-28
2023/11/19 23:22:46;;;;;;;17.83;2.97;;;13.10;99.90;;;;;;10519583;28;20101;-27
2023/11/19 23:27:49;;;;;;;34.42;3.55;;;13.20;99.90;;;;;;10488526;28;20521;-28
2023/11/19 23:32:51;;;;;;;26.02;4.22;;;13.10;99.90;;;;;;10507904;28;20605;-28
2023/11/19 23:37:53;;;;;;;24.30;3.28;;;13.00;99.90;;;;;;10528977;28;20046;-29
2023/11/19 23:42:56;;;;;;;20.00;4.20;;;13.00;99.90;;;;;;10521509;28;20093;-30
2023/11/19 23:47:58;;;;;;;35.42;4.07;;;12.90;99.90;;;;;;10518829;28;20047;-29
2023/11/19 23:53:00;;;;;;;20.05;3.30;;;13.00;99.90;;;;;;10518933;28;20139;-29
2023/11/19 23:58:03;;;;;;;30.23;3.60;;;13.00;99.90;;;;;;10513872;28;20159;-29
